createdAt,value
2022-08-28T00:00:14.489Z,29.35
2022-08-28T00:02:40.951Z,29.41
2022-08-28T00:05:07.418Z,29.42
2022-08-28T00:07:33.811Z,29.23
2022-08-28T00:10:00.174Z,29.33
2022-08-28T00:12:26.552Z,29.26
2022-08-28T00:14:52.902Z,29.21
2022-08-28T00:17:19.272Z,29.15
2022-08-28T00:19:45.632Z,29.24
2022-08-28T00:22:11.995Z,29.13
2022-08-28T00:24:38.374Z,29.25
2022-08-28T00:27:04.737Z,29.40
2022-08-28T00:29:31.093Z,29.33
2022-08-28T00:31:57.440Z,29.20
2022-08-28T00:34:33.068Z,29.05
2022-08-28T00:37:00.077Z,29.14
2022-08-28T00:39:26.430Z,29.13
2022-08-28T00:41:57.895Z,29.28
2022-08-28T00:44:24.554Z,29.31
2022-08-28T00:46:50.963Z,29.22
2022-08-28T00:49:17.348Z,29.27
2022-08-28T00:51:43.706Z,29.17
2022-08-28T00:54:10.086Z,29.28
2022-08-28T00:56:36.452Z,29.30
2022-08-28T00:59:02.892Z,29.17
2022-08-28T01:01:29.305Z,29.16
2022-08-28T01:03:55.727Z,29.11
2022-08-28T01:06:22.083Z,29.13
2022-08-28T01:08:50.692Z,29.08
2022-08-28T01:11:17.175Z,29.12
2022-08-28T01:13:43.569Z,29.11
2022-08-28T01:16:10.045Z,29.03
2022-08-28T01:18:36.451Z,29.01
2022-08-28T01:21:02.810Z,29.10
2022-08-28T01:23:29.165Z,29.05
2022-08-28T01:25:55.522Z,29.00
2022-08-28T01:28:21.915Z,29.00
2022-08-28T01:30:48.361Z,29.08
2022-08-28T01:33:14.804Z,29.03
2022-08-28T01:35:41.174Z,29.04
2022-08-28T01:38:07.526Z,29.06
2022-08-28T01:40:33.952Z,29.06
2022-08-28T01:43:00.399Z,29.02
2022-08-28T01:45:26.781Z,29.03
2022-08-28T01:47:55.326Z,29.14
2022-08-28T01:50:21.684Z,29.10
2022-08-28T01:52:48.038Z,29.00
2022-08-28T01:55:14.387Z,28.88
2022-08-28T01:57:41.072Z,28.89
2022-08-28T02:00:07.428Z,29.03
2022-08-28T02:02:33.784Z,28.90
2022-08-28T02:05:00.156Z,28.96
2022-08-28T02:07:26.572Z,29.03
2022-08-28T02:09:52.942Z,28.86
2022-08-28T02:12:19.296Z,28.85
2022-08-28T02:14:45.653Z,28.97
2022-08-28T02:17:11.998Z,28.96
2022-08-28T02:19:38.377Z,28.89
2022-08-28T02:22:04.729Z,28.98
2022-08-28T02:24:31.107Z,28.83
2022-08-28T02:26:57.457Z,29.07
2022-08-28T02:29:23.820Z,29.06
2022-08-28T02:31:50.159Z,28.98
2022-08-28T02:34:17.587Z,29.06
2022-08-28T02:36:44.000Z,28.82
2022-08-28T02:39:10.378Z,28.67
2022-08-28T02:41:36.765Z,28.78
2022-08-28T02:44:03.141Z,28.72
2022-08-28T02:46:29.591Z,28.75
2022-08-28T02:48:56.003Z,28.92
2022-08-28T02:51:22.422Z,28.81
2022-08-28T02:53:48.773Z,28.86
2022-08-28T02:56:15.143Z,28.90
2022-08-28T02:58:41.501Z,28.80
2022-08-28T03:01:07.920Z,28.86
2022-08-28T03:03:34.314Z,28.92
2022-08-28T03:06:01.342Z,29.10
2022-08-28T03:08:27.703Z,28.96
2022-08-28T03:10:54.071Z,28.95
2022-08-28T03:13:26.697Z,28.83
2022-08-28T03:15:55.600Z,28.94
2022-08-28T03:18:22.449Z,28.94
2022-08-28T03:20:48.801Z,28.92
2022-08-28T03:23:15.155Z,28.97
2022-08-28T03:25:41.515Z,28.90
2022-08-28T03:28:07.863Z,28.91
2022-08-28T03:30:34.265Z,28.86
2022-08-28T03:33:00.678Z,28.86
2022-08-28T03:35:27.031Z,28.81
2022-08-28T03:37:53.390Z,28.87
2022-08-28T03:40:19.775Z,28.85
2022-08-28T03:42:51.298Z,28.92
2022-08-28T03:45:20.041Z,28.88
2022-08-28T03:47:46.439Z,28.83
2022-08-28T03:50:12.795Z,28.82
2022-08-28T03:52:39.138Z,28.83
2022-08-28T03:55:05.515Z,28.77
2022-08-28T03:57:31.873Z,28.74
2022-08-28T03:59:58.228Z,28.72
2022-08-28T04:02:24.573Z,28.74
2022-08-28T04:04:50.963Z,28.74
2022-08-28T04:07:17.348Z,28.72
2022-08-28T04:09:43.740Z,28.82
2022-08-28T04:12:10.125Z,28.90
2022-08-28T04:14:36.474Z,28.80
2022-08-28T04:17:02.950Z,28.88
2022-08-28T04:19:29.347Z,28.73
2022-08-28T04:21:55.696Z,28.79
2022-08-28T04:24:22.061Z,28.92
2022-08-28T04:26:48.409Z,28.89
2022-08-28T04:29:14.771Z,28.85
2022-08-28T04:31:41.202Z,28.75
2022-08-28T04:34:07.614Z,28.78
2022-08-28T04:36:33.986Z,28.89
2022-08-28T04:39:00.334Z,28.83
2022-08-28T04:41:26.710Z,28.75
2022-08-28T04:43:53.066Z,28.86
2022-08-28T04:46:19.537Z,29.00
2022-08-28T04:48:45.948Z,28.94
2022-08-28T04:51:12.293Z,28.81
2022-08-28T04:53:38.661Z,28.85
2022-08-28T04:56:05.015Z,28.84
2022-08-28T04:58:31.370Z,28.77
2022-08-28T05:00:57.821Z,28.86
2022-08-28T05:03:24.284Z,28.82
2022-08-28T05:05:50.649Z,28.77
2022-08-28T05:08:16.996Z,28.80
2022-08-28T05:10:43.354Z,29.06
2022-08-28T05:13:09.714Z,29.06
2022-08-28T05:15:36.070Z,28.97
2022-08-28T05:18:02.414Z,28.88
2022-08-28T05:20:28.763Z,28.76
2022-08-28T05:22:55.136Z,28.89
2022-08-28T05:25:21.490Z,28.79
2022-08-28T05:27:47.840Z,28.95
2022-08-28T05:30:14.198Z,28.87
2022-08-28T05:32:40.552Z,28.92
2022-08-28T05:35:06.903Z,29.08
2022-08-28T05:37:33.265Z,28.81
2022-08-28T05:39:59.912Z,28.72
2022-08-28T05:42:30.649Z,28.70
2022-08-28T05:44:57.786Z,28.80
2022-08-28T05:47:24.136Z,28.74
2022-08-28T05:49:50.495Z,28.70
2022-08-28T05:52:18.692Z,28.69
2022-08-28T05:54:45.066Z,28.49
2022-08-28T05:57:11.417Z,28.55
2022-08-28T05:59:37.772Z,28.67
2022-08-28T06:02:04.596Z,28.78
2022-08-28T06:04:31.084Z,28.62
2022-08-28T06:06:57.484Z,28.53
2022-08-28T06:09:28.692Z,28.67
2022-08-28T06:11:55.886Z,28.65
2022-08-28T06:14:23.561Z,28.77
2022-08-28T06:16:52.011Z,28.77
2022-08-28T06:19:18.362Z,28.72
2022-08-28T06:21:44.743Z,28.60
2022-08-28T06:24:11.099Z,28.59
2022-08-28T06:26:37.446Z,28.70
2022-08-28T06:29:03.808Z,28.56
2022-08-28T06:31:33.446Z,28.60
2022-08-28T06:34:00.148Z,28.76
2022-08-28T06:36:26.525Z,28.76
2022-08-28T06:38:52.882Z,28.71
2022-08-28T06:41:19.230Z,28.69
2022-08-28T06:43:45.570Z,28.79
2022-08-28T06:46:12.028Z,28.75
2022-08-28T06:48:38.426Z,28.81
2022-08-28T06:51:04.791Z,28.84
2022-08-28T06:53:31.133Z,28.82
2022-08-28T06:55:57.482Z,28.65
2022-08-28T06:58:24.462Z,28.73
2022-08-28T07:00:58.147Z,28.73
2022-08-28T07:03:27.318Z,28.82
2022-08-28T07:05:53.692Z,28.84
2022-08-28T07:08:20.064Z,28.84
2022-08-28T07:10:46.418Z,28.66
2022-08-28T07:13:12.970Z,28.56
2022-08-28T07:15:41.910Z,28.76
2022-08-28T07:18:08.451Z,28.80
2022-08-28T07:20:34.820Z,28.89
2022-08-28T07:23:01.184Z,28.98
2022-08-28T07:25:27.544Z,28.83
2022-08-28T07:27:53.895Z,28.78
2022-08-28T07:30:20.247Z,28.78
2022-08-28T07:32:47.944Z,28.80
2022-08-28T07:35:14.323Z,28.90
2022-08-28T07:37:40.912Z,28.93
2022-08-28T07:40:07.430Z,28.83
2022-08-28T07:42:35.734Z,28.67
2022-08-28T07:45:02.184Z,28.90
2022-08-28T07:47:28.533Z,28.74
2022-08-28T07:49:54.881Z,28.85
2022-08-28T07:52:21.236Z,28.87
2022-08-28T07:54:47.582Z,28.79
2022-08-28T07:57:13.949Z,28.77
2022-08-28T07:59:40.329Z,28.76
2022-08-28T08:02:08.753Z,28.84
2022-08-28T08:04:35.104Z,28.89
2022-08-28T08:07:01.475Z,28.90
2022-08-28T08:09:28.645Z,28.87
2022-08-28T08:11:55.137Z,28.84
2022-08-28T08:14:21.509Z,28.99
2022-08-28T08:16:47.870Z,28.85
2022-08-28T08:19:14.220Z,28.95
2022-08-28T08:21:40.622Z,28.79
2022-08-28T08:24:06.999Z,28.82
2022-08-28T08:26:33.355Z,29.04
2022-08-28T08:28:59.715Z,28.97
2022-08-28T08:31:26.146Z,28.94
2022-08-28T08:33:52.522Z,28.91
2022-08-28T08:36:19.136Z,28.73
2022-08-28T08:38:45.493Z,28.87
2022-08-28T08:41:11.851Z,28.96
2022-08-28T08:43:38.212Z,28.98
2022-08-28T08:46:04.623Z,28.81
2022-08-28T08:48:31.025Z,28.86
2022-08-28T08:50:57.422Z,28.79
2022-08-28T08:53:23.773Z,28.80
2022-08-28T08:55:50.124Z,28.86
2022-08-28T08:58:16.493Z,28.92
2022-08-28T09:00:42.846Z,28.99
2022-08-28T09:03:09.240Z,28.94
2022-08-28T09:05:35.628Z,28.97
2022-08-28T09:08:01.984Z,28.88
2022-08-28T09:10:28.337Z,29.06
2022-08-28T09:12:54.686Z,28.96
2022-08-28T09:15:21.049Z,29.05
2022-08-28T09:17:47.405Z,28.85
2022-08-28T09:20:13.838Z,29.01
2022-08-28T09:22:40.194Z,28.95
2022-08-28T09:25:06.591Z,28.86
2022-08-28T09:27:33.966Z,29.03
2022-08-28T09:30:07.949Z,29.01
2022-08-28T09:32:34.525Z,28.98
2022-08-28T09:35:00.899Z,29.03
2022-08-28T09:37:27.276Z,29.16
2022-08-28T09:39:53.715Z,29.04
2022-08-28T09:42:20.094Z,29.00
2022-08-28T09:44:46.451Z,29.04
2022-08-28T09:47:17.782Z,29.02
2022-08-28T09:49:44.144Z,28.98
2022-08-28T09:52:10.501Z,29.14
2022-08-28T09:54:36.858Z,29.07
2022-08-28T09:57:03.217Z,29.09
2022-08-28T09:59:29.576Z,29.12
2022-08-28T10:01:55.946Z,29.13
2022-08-28T10:04:22.394Z,29.01
2022-08-28T10:06:48.793Z,28.97
2022-08-28T10:09:15.153Z,29.02
2022-08-28T10:11:44.306Z,29.08
2022-08-28T10:14:10.879Z,29.08
2022-08-28T10:16:37.230Z,29.07
2022-08-28T10:19:03.896Z,29.17
2022-08-28T10:21:30.256Z,29.16
2022-08-28T10:23:56.611Z,29.27
2022-08-28T10:26:22.963Z,29.05
2022-08-28T10:28:49.414Z,29.05
2022-08-28T10:31:15.840Z,29.03
2022-08-28T10:33:42.225Z,29.13
2022-08-28T10:36:08.575Z,29.07
2022-08-28T10:38:54.911Z,29.07
2022-08-28T10:41:21.295Z,29.14
2022-08-28T10:43:47.928Z,29.14
2022-08-28T10:46:14.600Z,29.12
2022-08-28T10:48:40.975Z,28.93
2022-08-28T10:51:07.339Z,29.18
2022-08-28T10:53:33.691Z,29.18
2022-08-28T10:56:00.044Z,29.18
2022-08-28T10:58:26.566Z,29.19
2022-08-28T11:00:53.012Z,29.13
2022-08-28T11:03:33.928Z,29.11
2022-08-28T11:06:01.313Z,29.08
2022-08-28T11:08:27.665Z,29.04
2022-08-28T11:10:54.014Z,29.07
2022-08-28T11:13:20.372Z,29.18
2022-08-28T11:15:46.742Z,29.14
2022-08-28T11:18:13.091Z,29.20
2022-08-28T11:20:39.450Z,29.10
2022-08-28T11:23:05.874Z,29.08
2022-08-28T11:25:33.035Z,28.98
2022-08-28T11:27:59.436Z,29.07
2022-08-28T11:30:25.835Z,29.02
2022-08-28T11:32:52.262Z,29.08
2022-08-28T11:35:18.609Z,29.08
2022-08-28T11:37:44.962Z,29.10
2022-08-28T11:40:11.354Z,29.11
2022-08-28T11:42:37.743Z,29.09
2022-08-28T11:45:04.119Z,29.13
2022-08-28T11:47:30.485Z,29.23
2022-08-28T11:49:56.855Z,29.27
2022-08-28T11:52:23.203Z,29.18
2022-08-28T11:54:49.563Z,29.10
2022-08-28T11:57:15.922Z,29.09
2022-08-28T11:59:42.273Z,29.15
2022-08-28T12:02:08.672Z,29.17
2022-08-28T12:04:35.119Z,29.14
2022-08-28T12:07:01.534Z,29.04
2022-08-28T12:09:27.910Z,29.09
2022-08-28T12:11:54.262Z,29.11
2022-08-28T12:14:20.603Z,29.14
2022-08-28T12:16:46.964Z,29.18
2022-08-28T12:19:13.355Z,29.11
2022-08-28T12:21:39.706Z,29.00
2022-08-28T12:24:09.134Z,28.96
2022-08-28T12:26:36.412Z,29.08
2022-08-28T12:29:02.776Z,29.16
2022-08-28T12:31:29.129Z,29.04
2022-08-28T12:33:55.476Z,29.23
2022-08-28T12:36:21.819Z,29.16
2022-08-28T12:38:48.171Z,29.15
2022-08-28T12:41:14.533Z,29.16
2022-08-28T12:43:46.389Z,29.23
2022-08-28T12:46:19.538Z,29.03
2022-08-28T12:48:46.445Z,29.16
2022-08-28T12:51:12.817Z,29.16
2022-08-28T12:53:39.171Z,29.26
2022-08-28T12:56:05.538Z,29.12
2022-08-28T12:58:31.892Z,28.97
2022-08-28T13:00:58.307Z,29.14
2022-08-28T13:03:24.689Z,29.07
2022-08-28T13:05:51.049Z,29.10
2022-08-28T13:08:17.396Z,29.05
2022-08-28T13:10:43.755Z,28.98
2022-08-28T13:13:10.098Z,29.05
2022-08-28T13:15:36.459Z,28.88
2022-08-28T13:18:02.814Z,29.04
2022-08-28T13:20:29.179Z,29.00
2022-08-28T13:22:55.538Z,29.15
2022-08-28T13:25:21.893Z,29.05
2022-08-28T13:27:48.258Z,29.00
2022-08-28T13:30:14.614Z,29.03
2022-08-28T13:32:40.961Z,28.90
2022-08-28T13:35:07.324Z,29.02
2022-08-28T13:37:33.686Z,29.13
2022-08-28T13:40:00.113Z,28.88
2022-08-28T13:42:26.514Z,29.13
2022-08-28T13:44:52.865Z,29.00
2022-08-28T13:47:19.211Z,28.83
2022-08-28T13:49:45.571Z,28.88
2022-08-28T13:52:11.930Z,28.84
2022-08-28T13:54:41.610Z,29.02
2022-08-28T13:57:10.175Z,28.94
2022-08-28T13:59:36.538Z,28.83
2022-08-28T14:02:04.388Z,28.93
2022-08-28T14:04:30.780Z,28.98
2022-08-28T14:06:57.135Z,28.90
2022-08-28T14:09:23.486Z,28.77
2022-08-28T14:11:50.287Z,29.07
2022-08-28T14:14:16.643Z,28.97
2022-08-28T14:16:43.031Z,28.97
2022-08-28T14:19:09.406Z,28.93
2022-08-28T14:21:35.765Z,29.04
2022-08-28T14:24:02.108Z,28.90
2022-08-28T14:26:28.471Z,29.11
2022-08-28T14:28:54.822Z,28.98
2022-08-28T14:31:21.207Z,29.14
2022-08-28T14:33:52.839Z,29.23
2022-08-28T14:36:19.184Z,29.21
2022-08-28T14:38:45.536Z,28.84
2022-08-28T14:41:11.892Z,29.01
2022-08-28T14:43:38.237Z,28.94
2022-08-28T14:46:08.306Z,28.99
2022-08-28T14:48:37.378Z,29.25
2022-08-28T14:51:03.743Z,29.14
2022-08-28T14:53:30.100Z,28.86
2022-08-28T14:55:56.461Z,29.09
2022-08-28T14:58:22.814Z,29.21
2022-08-28T15:00:49.214Z,29.33
2022-08-28T15:03:15.743Z,28.96
2022-08-28T15:05:42.263Z,29.22
2022-08-28T15:08:08.619Z,28.85
2022-08-28T15:10:34.969Z,28.89
2022-08-28T15:13:01.330Z,29.11
2022-08-28T15:15:28.020Z,28.94
2022-08-28T15:17:54.373Z,29.01
2022-08-28T15:20:20.731Z,29.03
2022-08-28T15:22:47.087Z,29.04
2022-08-28T15:25:13.444Z,29.09
2022-08-28T15:27:39.788Z,28.92
2022-08-28T15:30:06.149Z,28.82
2022-08-28T15:32:32.514Z,29.13
2022-08-28T15:34:58.876Z,28.97
2022-08-28T15:37:25.283Z,29.03
2022-08-28T15:39:51.845Z,29.08
2022-08-28T15:42:18.194Z,28.96
2022-08-28T15:44:44.557Z,29.05
2022-08-28T15:47:10.918Z,29.06
2022-08-28T15:49:43.491Z,29.07
2022-08-28T15:52:16.219Z,28.97
2022-08-28T15:54:42.591Z,28.97
2022-08-28T15:57:08.950Z,28.90
2022-08-28T15:59:47.892Z,28.89
2022-08-28T16:02:16.644Z,28.95
2022-08-28T16:04:43.058Z,28.98
2022-08-28T16:07:09.415Z,28.99
2022-08-28T16:09:35.770Z,29.02
2022-08-28T16:12:02.117Z,29.04
2022-08-28T16:14:28.467Z,28.98
2022-08-28T16:16:54.821Z,29.05
2022-08-28T16:19:21.173Z,29.17
2022-08-28T16:21:47.521Z,29.01
2022-08-28T16:24:13.880Z,28.93
2022-08-28T16:26:40.221Z,28.91
2022-08-28T16:29:06.565Z,29.06
2022-08-28T16:31:33.531Z,29.02
2022-08-28T16:33:59.937Z,29.10
2022-08-28T16:36:26.294Z,29.00
2022-08-28T16:38:52.930Z,29.02
2022-08-28T16:41:30.291Z,29.00
2022-08-28T16:43:58.379Z,29.12
2022-08-28T16:46:24.750Z,28.96
2022-08-28T16:48:51.109Z,29.10
2022-08-28T16:51:17.466Z,29.16
2022-08-28T16:53:43.828Z,29.19
2022-08-28T16:56:10.189Z,29.07
2022-08-28T16:58:36.563Z,28.96
2022-08-28T17:01:03.031Z,28.97
2022-08-28T17:03:29.453Z,29.01
2022-08-28T17:05:55.807Z,29.19
2022-08-28T17:08:22.158Z,29.05
2022-08-28T17:10:48.513Z,29.11
2022-08-28T17:13:14.870Z,29.10
2022-08-28T17:15:41.222Z,28.97
2022-08-28T17:18:07.574Z,29.28
2022-08-28T17:20:33.931Z,29.24
2022-08-28T17:23:00.289Z,28.94
2022-08-28T17:25:26.648Z,29.06
2022-08-28T17:27:53.003Z,29.24
2022-08-28T17:30:19.358Z,29.03
2022-08-28T17:32:45.702Z,29.07
2022-08-28T17:35:12.053Z,29.23
2022-08-28T17:37:38.412Z,29.21
2022-08-28T17:40:04.788Z,29.25
2022-08-28T17:42:31.233Z,29.21
2022-08-28T17:44:57.573Z,29.18
2022-08-28T17:47:27.497Z,29.09
2022-08-28T17:49:57.413Z,29.20
2022-08-28T17:52:23.766Z,29.29
2022-08-28T17:54:50.109Z,29.10
2022-08-28T17:57:16.480Z,29.12
2022-08-28T17:59:42.869Z,29.29
2022-08-28T18:02:09.329Z,29.16
2022-08-28T18:04:35.810Z,29.11
2022-08-28T18:07:02.185Z,29.22
2022-08-28T18:09:28.570Z,29.20
2022-08-28T18:11:54.930Z,29.14
2022-08-28T18:14:21.289Z,29.30
2022-08-28T18:16:47.742Z,29.18
2022-08-28T18:19:14.137Z,29.29
2022-08-28T18:21:40.512Z,29.19
2022-08-28T18:24:06.870Z,29.10
2022-08-28T18:26:33.222Z,29.28
2022-08-28T18:28:59.593Z,29.25
2022-08-28T18:31:25.993Z,29.12
2022-08-28T18:33:52.385Z,29.20
2022-08-28T18:36:18.742Z,29.26
2022-08-28T18:38:45.111Z,29.09
2022-08-28T18:41:11.491Z,29.34
2022-08-28T18:43:37.843Z,29.22
2022-08-28T18:46:04.264Z,29.20
2022-08-28T18:48:30.682Z,29.19
2022-08-28T18:50:57.038Z,29.26
2022-08-28T18:53:23.397Z,29.27
2022-08-28T18:55:52.774Z,29.21
2022-08-28T18:58:20.164Z,29.21
2022-08-28T19:00:46.551Z,29.26
2022-08-28T19:03:12.937Z,29.22
2022-08-28T19:05:39.845Z,29.16
2022-08-28T19:08:06.200Z,29.13
2022-08-28T19:10:34.705Z,29.18
2022-08-28T19:13:01.381Z,29.03
2022-08-28T19:15:27.727Z,29.16
2022-08-28T19:17:54.085Z,29.20
2022-08-28T19:20:20.434Z,29.23
2022-08-28T19:22:46.788Z,29.26
2022-08-28T19:25:17.216Z,29.27
2022-08-28T19:27:58.626Z,29.21
2022-08-28T19:30:25.648Z,29.14
2022-08-28T19:32:52.003Z,29.13
2022-08-28T19:35:18.363Z,29.17
2022-08-28T19:37:44.730Z,29.18
2022-08-28T19:40:11.098Z,29.31
2022-08-28T19:42:37.498Z,29.28
2022-08-28T19:45:03.857Z,29.14
2022-08-28T19:47:35.540Z,29.30
2022-08-28T19:50:02.235Z,29.34
2022-08-28T19:52:28.608Z,29.24
2022-08-28T19:54:55.471Z,29.21
2022-08-28T19:57:21.964Z,29.29
2022-08-28T19:59:48.857Z,29.35
2022-08-28T20:02:15.289Z,29.39
2022-08-28T20:04:41.675Z,29.39
2022-08-28T20:07:08.034Z,29.26
2022-08-28T20:09:34.387Z,29.26
2022-08-28T20:12:00.764Z,29.30
2022-08-28T20:14:27.130Z,29.19
2022-08-28T20:16:53.487Z,29.14
2022-08-28T20:19:19.861Z,29.22
2022-08-28T20:21:46.215Z,29.29
2022-08-28T20:24:12.569Z,29.33
2022-08-28T20:26:38.941Z,29.28
2022-08-28T20:29:05.304Z,29.35
2022-08-28T20:31:31.667Z,29.31
2022-08-28T20:33:58.014Z,29.18
2022-08-28T20:36:24.374Z,29.26
2022-08-28T20:38:50.730Z,29.27
2022-08-28T20:41:17.085Z,29.26
2022-08-28T20:43:43.429Z,29.24
2022-08-28T20:46:09.821Z,29.33
2022-08-28T20:48:36.218Z,29.29
2022-08-28T20:51:02.567Z,29.20
2022-08-28T20:53:37.756Z,29.24
2022-08-28T20:56:04.310Z,29.34
2022-08-28T20:58:30.674Z,29.34
2022-08-28T21:00:59.449Z,29.20
2022-08-28T21:03:27.236Z,29.24
2022-08-28T21:05:54.832Z,29.09
2022-08-28T21:08:21.179Z,29.28
2022-08-28T21:10:47.529Z,29.24
2022-08-28T21:13:13.889Z,29.27
2022-08-28T21:15:40.238Z,29.25
2022-08-28T21:18:06.577Z,29.23
2022-08-28T21:20:32.932Z,29.29
2022-08-28T21:22:59.577Z,29.34
2022-08-28T21:25:25.945Z,29.21
2022-08-28T21:27:52.307Z,29.31
2022-08-28T21:30:18.657Z,29.33
2022-08-28T21:32:45.011Z,29.23
2022-08-28T21:35:11.367Z,29.21
2022-08-28T21:37:37.735Z,29.29
2022-08-28T21:40:04.161Z,29.06
2022-08-28T21:42:30.559Z,29.34
2022-08-28T21:44:56.926Z,29.25
2022-08-28T21:47:23.435Z,29.36
2022-08-28T21:49:49.841Z,29.38
2022-08-28T21:52:16.230Z,29.39
2022-08-28T21:54:42.596Z,29.37
2022-08-28T21:57:08.955Z,29.30
2022-08-28T21:59:38.025Z,29.28
2022-08-28T22:02:04.664Z,29.21
2022-08-28T22:04:31.055Z,29.23
2022-08-28T22:06:57.418Z,29.34
2022-08-28T22:09:23.794Z,29.31
2022-08-28T22:11:50.169Z,29.33
2022-08-28T22:14:16.531Z,29.33
2022-08-28T22:16:42.931Z,29.14
2022-08-28T22:19:09.342Z,29.32
2022-08-28T22:21:35.706Z,29.28
2022-08-28T22:24:02.077Z,29.42
2022-08-28T22:26:28.435Z,29.41
2022-08-28T22:28:54.791Z,29.33
2022-08-28T22:31:21.159Z,29.27
2022-08-28T22:33:47.519Z,29.41
2022-08-28T22:36:13.881Z,29.37
2022-08-28T22:38:40.232Z,29.40
2022-08-28T22:41:06.598Z,29.38
2022-08-28T22:43:32.954Z,29.41
2022-08-28T22:45:59.363Z,29.40
2022-08-28T22:48:25.774Z,29.46
2022-08-28T22:50:52.152Z,29.39
2022-08-28T22:53:18.502Z,29.41
2022-08-28T22:55:44.925Z,29.43
2022-08-28T22:58:11.273Z,29.43
2022-08-28T23:00:37.630Z,29.38
2022-08-28T23:03:04.056Z,29.42
2022-08-28T23:05:30.469Z,29.39
2022-08-28T23:07:56.861Z,29.42
2022-08-28T23:10:42.146Z,29.40
2022-08-28T23:13:09.549Z,29.43
2022-08-28T23:15:40.697Z,29.38
2022-08-28T23:18:07.117Z,29.43
2022-08-28T23:20:34.350Z,29.36
2022-08-28T23:23:01.594Z,29.28
2022-08-28T23:25:27.939Z,29.44
2022-08-28T23:27:54.294Z,29.44
2022-08-28T23:30:20.646Z,29.43
2022-08-28T23:32:46.989Z,29.45
2022-08-28T23:35:13.486Z,29.32
2022-08-28T23:37:39.838Z,29.34
2022-08-28T23:40:06.412Z,29.36
2022-08-28T23:42:32.778Z,29.15
2022-08-28T23:44:59.131Z,29.23
2022-08-28T23:47:27.782Z,29.30
2022-08-28T23:49:54.137Z,29.26
2022-08-28T23:52:20.482Z,29.26
2022-08-28T23:54:48.558Z,29.23
2022-08-28T23:57:14.916Z,29.26
2022-08-28T23:59:41.689Z,29.21
